Time;durP1;ratioP1;P1;durP2;ratioP2;P2;SDS_P1;SDS_P2;PMS_P1;PMS_P2;Temp;Humidity;BMP_temperature;BMP_pressure;BME280_temperature;BME280_humidity;BME280_pressure;Samples;Min_cycle;Max_cycle;Signal;HPM_P1;HPM_P2
2022/07/01 00:00:03;;;;;;;6.78;6.20;;;;;;;21.23;72.12;101021.63;4996360;28;102238;-48
2022/07/01 00:02:32;;;;;;;6.90;6.30;;;;;;;21.23;72.23;101022.44;4995860;28;104004;-46
2022/07/01 00:04:58;;;;;;;7.65;7.03;;;;;;;21.22;72.17;101017.25;4996637;28;102370;-47
2022/07/01 00:07:25;;;;;;;7.25;6.45;;;;;;;21.22;72.16;101014.50;4996170;28;102514;-47
2022/07/01 00:09:52;;;;;;;7.40;6.80;;;;;;;21.23;72.27;101014.13;4994857;28;102142;-47
2022/07/01 00:12:19;;;;;;;7.10;6.50;;;;;;;21.22;72.37;101007.00;4996043;28;104028;-47
2022/07/01 00:14:45;;;;;;;7.07;6.53;;;;;;;21.22;72.29;101008.94;4994582;28;102403;-49
2022/07/01 00:17:12;;;;;;;8.50;7.03;;;;;;;21.22;72.24;101011.72;4986723;28;102735;-46
2022/07/01 00:19:40;;;;;;;7.13;6.50;;;;;;;21.21;72.35;101010.91;4995008;28;102145;-49
2022/07/01 00:22:07;;;;;;;8.83;6.47;;;;;;;21.22;72.30;101003.41;4995016;28;103941;-47
2022/07/01 00:24:33;;;;;;;7.20;6.60;;;;;;;21.20;72.27;101009.28;4994092;28;102859;-46
2022/07/01 00:27:00;;;;;;;6.88;6.28;;;;;;;21.21;72.30;101005.38;4995555;28;102280;-46
2022/07/01 00:29:26;;;;;;;7.32;6.63;;;;;;;21.20;72.38;101003.72;4995144;28;102270;-49
2022/07/01 00:31:54;;;;;;;8.63;6.88;;;;;;;21.21;72.39;100999.84;4992531;28;104062;-48
2022/07/01 00:34:20;;;;;;;7.85;7.15;;;;;;;21.20;72.56;101000.97;4994189;28;102172;-47
2022/07/01 00:36:48;;;;;;;7.28;6.57;;;;;;;21.20;72.31;100998.19;4994527;28;102244;-48
2022/07/01 00:39:15;;;;;;;7.28;6.68;;;;;;;21.21;72.43;101004.56;4994920;28;102244;-48
2022/07/01 00:41:42;;;;;;;7.30;6.70;;;;;;;21.20;72.18;100998.19;4994644;28;103935;-48
2022/07/01 00:44:16;;;;;;;7.20;6.55;;;;;;;21.20;72.36;100992.66;4995647;28;102216;-47
2022/07/01 00:46:43;;;;;;;8.77;7.25;;;;;;;21.20;72.43;100998.19;4975811;28;102268;-48
2022/07/01 00:49:10;;;;;;;7.13;6.53;;;;;;;21.20;72.37;100998.19;4976699;28;102227;-48
2022/07/01 00:51:37;;;;;;;8.20;7.50;;;;;;;21.20;72.54;100997.41;4993154;28;103972;-49
2022/07/01 00:54:05;;;;;;;7.40;6.80;;;;;;;21.19;72.41;100993.81;4994461;28;102166;-49
2022/07/01 00:56:32;;;;;;;7.95;7.18;;;;;;;21.19;72.35;100999.34;4995122;28;102513;-47
2022/07/01 00:58:58;;;;;;;7.20;6.50;;;;;;;21.20;72.36;101000.16;4995841;28;102173;-49
2022/07/01 01:01:25;;;;;;;7.70;7.00;;;;;;;21.20;72.66;100998.19;4994041;28;103789;-47
2022/07/01 01:03:52;;;;;;;6.70;6.18;;;;;;;21.19;72.49;100996.59;4995471;28;101971;-47
2022/07/01 01:06:19;;;;;;;8.25;7.55;;;;;;;21.19;72.50;101002.13;4994949;28;102538;-47
2022/07/01 01:08:46;;;;;;;7.50;6.80;;;;;;;21.19;72.45;100996.59;4996535;28;102446;-47
2022/07/01 01:11:15;;;;;;;7.50;6.90;;;;;;;21.19;72.50;101002.13;4993746;28;103833;-49
2022/07/01 01:13:42;;;;;;;7.43;6.77;;;;;;;21.19;72.34;100996.59;4995276;28;102343;-48
2022/07/01 01:16:16;;;;;;;7.47;6.88;;;;;;;21.19;72.48;100995.78;4987257;28;102230;-47
2022/07/01 01:18:42;;;;;;;7.97;7.10;;;;;;;21.19;72.44;100995.78;4996698;28;101944;-50
2022/07/01 01:21:10;;;;;;;7.40;6.80;;;;;;;21.19;72.44;100996.59;4992923;28;103851;-50
2022/07/01 01:23:37;;;;;;;7.70;7.03;;;;;;;21.19;72.45;101002.13;4988995;28;102293;-47
2022/07/01 01:26:14;;;;;;;7.35;6.75;;;;;;;21.18;72.17;101000.50;4980925;28;102323;-46
2022/07/01 01:28:41;;;;;;;7.18;6.57;;;;;;;21.19;72.38;101002.13;4990102;28;102346;-47
2022/07/01 01:31:09;;;;;;;8.00;7.20;;;;;;;21.19;72.49;101002.13;4993833;28;103819;-46
2022/07/01 01:33:36;;;;;;;8.35;6.65;;;;;;;21.18;72.46;101000.50;4995767;28;102503;-46
2022/07/01 01:36:03;;;;;;;7.63;7.03;;;;;;;21.18;72.30;101000.50;4994497;28;101960;-48
2022/07/01 01:38:33;;;;;;;7.68;7.03;;;;;;;21.18;72.50;100999.72;4995227;28;102462;-48
2022/07/01 01:40:59;;;;;;;7.50;6.80;;;;;;;21.18;72.40;101005.25;4993390;28;104068;-46
2022/07/01 01:43:26;;;;;;;8.00;7.30;;;;;;;21.18;72.58;101006.03;4995514;28;101999;-49
2022/07/01 01:45:52;;;;;;;7.20;6.60;;;;;;;21.17;72.56;101004.44;4996284;28;102295;-47
2022/07/01 01:48:18;;;;;;;7.75;7.07;;;;;;;21.18;72.42;101002.47;4998381;28;101982;-46
2022/07/01 01:50:45;;;;;;;8.45;7.65;;;;;;;21.17;72.56;101004.44;4997848;28;103919;-46
2022/07/01 01:53:12;;;;;;;7.80;7.05;;;;;;;21.17;72.55;101004.44;4998241;28;102143;-47
2022/07/01 01:55:40;;;;;;;8.07;7.38;;;;;;;21.17;72.38;100998.91;4997103;28;102204;-47
2022/07/01 01:58:06;;;;;;;7.43;6.70;;;;;;;21.16;72.31;100994.50;4998673;28;102370;-47
2022/07/01 02:00:33;;;;;;;8.10;7.40;;;;;;;21.17;72.51;101009.97;4990025;28;104028;-47
2022/07/01 02:02:59;;;;;;;7.80;7.10;;;;;;;21.16;72.62;101007.53;4998278;28;102167;-54
2022/07/01 02:05:26;;;;;;;7.70;7.10;;;;;;;21.16;72.55;101008.31;4998319;28;102233;-47
2022/07/01 02:07:53;;;;;;;6.88;6.32;;;;;;;21.17;72.46;101017.44;4998907;28;102316;-47
2022/07/01 02:10:20;;;;;;;7.85;7.05;;;;;;;21.17;72.50;101014.66;4996537;28;103943;-46
2022/07/01 02:12:48;;;;;;;8.38;7.60;;;;;;;21.17;72.57;101015.50;4998280;28;102419;-47
2022/07/01 02:15:14;;;;;;;7.87;7.27;;;;;;;21.15;72.67;101023.31;4997116;28;102613;-46
2022/07/01 02:17:41;;;;;;;7.40;6.80;;;;;;;21.16;72.48;101024.13;4999139;28;102165;-47
2022/07/01 02:20:09;;;;;;;8.02;7.32;;;;;;;21.16;72.51;101030.47;4996121;28;103663;-48
2022/07/01 02:22:36;;;;;;;7.88;7.18;;;;;;;21.15;72.81;101034.38;4998067;28;102324;-47
2022/07/01 02:25:03;;;;;;;7.55;6.93;;;;;;;21.16;72.67;101030.47;4996928;28;101948;-47
2022/07/01 02:27:30;;;;;;;7.80;7.05;;;;;;;21.15;72.66;101028.84;4987951;28;102296;-47
2022/07/01 02:29:58;;;;;;;7.97;7.28;;;;;;;21.15;72.54;101033.59;4996440;28;103950;-47
2022/07/01 02:32:25;;;;;;;7.30;6.60;;;;;;;21.15;72.48;101023.31;4997851;28;102095;-46
2022/07/01 02:34:52;;;;;;;7.18;6.63;;;;;;;21.14;72.57;101027.25;4997220;28;102626;-47
2022/07/01 02:37:18;;;;;;;7.22;6.63;;;;;;;21.15;72.50;101026.09;4997724;28;102268;-46
2022/07/01 02:39:45;;;;;;;7.60;7.00;;;;;;;21.15;72.55;101023.31;4993953;28;103833;-46
2022/07/01 02:42:25;;;;;;;7.97;7.28;;;;;;;21.15;72.38;101034.38;4997689;28;102272;-47
2022/07/01 02:44:52;;;;;;;6.63;6.03;;;;;;;21.15;72.55;101031.63;4996815;28;102692;-48
2022/07/01 02:47:20;;;;;;;7.03;6.43;;;;;;;21.15;72.47;101031.63;4997774;28;103447;-47
2022/07/01 02:49:48;;;;;;;7.75;7.05;;;;;;;21.15;72.54;101031.63;4996282;28;103855;-46
2022/07/01 02:52:15;;;;;;;7.43;6.80;;;;;;;21.15;72.63;101034.38;4996872;28;102239;-47
2022/07/01 02:54:42;;;;;;;7.88;6.50;;;;;;;21.16;72.49;101037.97;4996447;28;102255;-47
2022/07/01 02:57:08;;;;;;;7.15;6.45;;;;;;;21.15;72.45;101039.94;4996189;28;102583;-47
2022/07/01 02:59:35;;;;;;;7.28;6.68;;;;;;;21.16;72.44;101041.53;4994142;28;103900;-46
2022/07/01 03:02:02;;;;;;;7.10;6.50;;;;;;;21.17;72.44;101045.09;4997697;28;102235;-46
2022/07/01 03:04:30;;;;;;;6.97;6.28;;;;;;;21.18;72.43;101044.78;4995957;28;103784;-46
2022/07/01 03:06:57;;;;;;;6.80;6.20;;;;;;;21.19;72.35;101048.38;4998536;28;102282;-49
2022/07/01 03:09:24;;;;;;;7.38;6.78;;;;;;;21.19;72.40;101051.94;4995181;28;104073;-52
2022/07/01 03:11:50;;;;;;;7.80;7.20;;;;;;;21.19;72.33;101051.94;4997982;28;102016;-46
2022/07/01 03:14:18;;;;;;;7.60;6.93;;;;;;;21.19;72.28;101051.94;4996576;28;102324;-47
2022/07/01 03:16:46;;;;;;;7.18;6.57;;;;;;;21.19;72.22;101054.72;4998265;28;102127;-50
2022/07/01 03:19:13;;;;;;;7.57;6.85;;;;;;;21.20;72.39;101053.56;4994847;28;103808;-48
2022/07/01 03:21:41;;;;;;;7.53;6.82;;;;;;;21.21;72.28;101049.66;4997276;28;102245;-47
2022/07/01 03:24:08;;;;;;;7.00;6.40;;;;;;;21.21;72.26;101046.91;4996041;28;102054;-48
2022/07/01 03:26:34;;;;;;;7.65;7.05;;;;;;;21.22;72.17;101061.53;4996876;28;102025;-46
2022/07/01 03:29:01;;;;;;;7.13;6.53;;;;;;;21.22;72.18;101067.88;4994397;28;103792;-46
2022/07/01 03:31:27;;;;;;;7.30;6.70;;;;;;;21.24;72.41;101064.78;4995142;28;102283;-46
2022/07/01 03:33:54;;;;;;;7.53;6.82;;;;;;;21.24;72.05;101059.22;4995867;28;102846;-46
2022/07/01 03:36:20;;;;;;;6.53;6.03;;;;;;;21.24;72.09;101065.59;4996799;28;102679;-46
2022/07/01 03:38:48;;;;;;;6.97;6.38;;;;;;;21.24;72.26;101065.59;4996012;28;103919;-47
2022/07/01 03:41:15;;;;;;;7.40;6.70;;;;;;;21.25;72.10;101071.94;4995119;28;102015;-46
2022/07/01 03:43:42;;;;;;;7.10;6.40;;;;;;;21.23;72.21;101069.50;4996663;28;101931;-46
2022/07/01 03:46:09;;;;;;;6.75;6.20;;;;;;;21.24;72.27;101082.22;4997527;28;102245;-47
2022/07/01 03:48:35;;;;;;;7.07;6.47;;;;;;;21.25;72.24;101077.47;4995621;28;104003;-47
2022/07/01 03:51:02;;;;;;;7.13;6.63;;;;;;;21.25;72.21;101080.25;4994949;28;102292;-46
2022/07/01 03:56:16;;;;;;;7.15;6.55;;;;;;;21.24;72.25;101086.91;4996443;28;102563;-49
2022/07/01 03:58:42;;;;;;;7.13;6.53;;;;;;;21.24;72.20;101092.44;4996030;28;103885;-49
2022/07/01 04:01:09;;;;;;;7.13;6.53;;;;;;;21.24;72.25;101087.75;4995542;28;101949;-47
2022/07/01 04:03:36;;;;;;;7.43;6.72;;;;;;;21.24;72.15;101092.44;4996351;28;102638;-46
2022/07/01 04:06:05;;;;;;;7.43;6.70;;;;;;;21.26;72.19;101090.97;4996814;28;102172;-48
2022/07/01 04:08:32;;;;;;;7.38;6.78;;;;;;;21.24;72.29;101087.75;4995537;28;104017;-49
2022/07/01 04:10:58;;;;;;;7.65;7.00;;;;;;;21.25;72.22;101088.56;4994772;28;102078;-46
2022/07/01 04:13:29;;;;;;;7.10;6.50;;;;;;;21.24;72.20;101093.28;4995838;28;102226;-46
2022/07/01 04:15:57;;;;;;;7.63;7.03;;;;;;;21.25;72.15;101092.13;4995678;28;102374;-47
2022/07/01 04:18:23;;;;;;;7.15;6.55;;;;;;;21.26;72.21;101093.75;4994359;28;103959;-48
2022/07/01 04:23:35;;;;;;;6.90;6.28;;;;;;;21.27;72.06;101102.84;4994817;28;102201;-48
2022/07/01 04:26:02;;;;;;;7.10;6.50;;;;;;;21.28;72.10;101099.78;4996715;28;102430;-46
2022/07/01 04:28:30;;;;;;;7.80;7.10;;;;;;;21.28;72.13;101101.72;4995082;28;104009;-47
2022/07/01 04:30:56;;;;;;;7.37;6.73;;;;;;;21.29;72.19;101106.13;4994598;28;102157;-46
2022/07/01 04:33:26;;;;;;;7.05;6.45;;;;;;;21.30;72.15;101114.06;4994258;28;102041;-48
2022/07/01 04:35:52;;;;;;;;;;;;;;;21.30;72.22;101119.59;4997233;28;102330;-48
2022/07/01 04:38:18;;;;;;;7.15;6.55;;;;;;;21.31;72.14;101112.94;4992784;28;104379;-46
2022/07/01 04:41:58;;;;;;;7.53;6.65;;;;;;;21.30;72.13;101108.53;4994158;28;102177;-47
2022/07/01 04:43:33;;;;;;;7.10;6.50;;;;;;;21.32;72.21;101125.63;4994231;28;102337;-47
2022/07/01 04:45:59;;;;;;;7.10;6.60;;;;;;;21.33;72.15;101118.97;4996375;28;102500;-47
2022/07/01 04:48:26;;;;;;;7.32;6.72;;;;;;;21.33;72.08;101120.91;4995225;28;103879;-46
2022/07/01 04:50:52;;;;;;;7.03;6.43;;;;;;;21.32;72.11;101122.06;4993637;28;102032;-46
2022/07/01 04:53:19;;;;;;;7.22;6.63;;;;;;;21.33;72.12;101124.50;4993658;28;102055;-47
2022/07/01 04:55:46;;;;;;;7.32;6.72;;;;;;;21.33;72.28;101123.66;4996610;28;102180;-46
2022/07/01 04:58:13;;;;;;;7.43;6.82;;;;;;;21.34;72.05;101126.13;4994833;28;104148;-47
2022/07/01 05:00:41;;;;;;;8.30;6.72;;;;;;;21.35;71.94;101121.44;4994614;28;102579;-47
2022/07/01 05:03:07;;;;;;;8.03;7.33;;;;;;;21.35;71.96;101111.16;4994924;28;102077;-46
2022/07/01 05:05:34;;;;;;;7.00;6.47;;;;;;;21.38;72.06;101111.63;4994815;28;102459;-46
2022/07/01 05:08:00;;;;;;;8.00;7.07;;;;;;;21.37;72.03;101108.03;4993216;28;103985;-47
2022/07/01 05:10:28;;;;;;;7.82;7.10;;;;;;;21.39;71.97;101110.50;4995293;28;102230;-48
2022/07/01 05:12:55;;;;;;;7.22;6.63;;;;;;;21.39;72.09;101110.50;4981571;28;102423;-48
2022/07/01 05:15:21;;;;;;;8.05;7.35;;;;;;;21.40;72.12;101106.56;4993563;28;102377;-50
2022/07/01 05:23:20;;;;;;;7.32;6.70;;;;;;;21.44;72.01;101111.09;4998670;28;102320;-46
2022/07/01 05:25:47;;;;;;;7.93;7.22;;;;;;;21.47;71.90;101117.94;5001988;28;102149;-46
2022/07/01 05:28:14;;;;;;;7.95;7.25;;;;;;;21.50;71.57;101117.25;5001185;28;103905;-48
2022/07/01 05:30:41;;;;;;;7.70;7.00;;;;;;;21.51;71.52;101116.09;5001669;28;102449;-46
2022/07/01 05:33:10;;;;;;;8.00;7.20;;;;;;;21.56;71.38;101115.91;4999945;28;102220;-47
2022/07/01 05:35:37;;;;;;;7.38;6.78;;;;;;;21.56;71.42;101107.59;5001394;28;102202;-49
2022/07/01 05:38:04;;;;;;;8.63;7.93;;;;;;;21.58;71.46;101110.84;4998718;28;103821;-48
2022/07/01 05:40:31;;;;;;;7.95;7.15;;;;;;;21.61;71.46;101117.69;5001398;28;102154;-48
2022/07/01 05:42:57;;;;;;;7.95;7.22;;;;;;;21.61;71.33;101112.94;5001571;28;101809;-48
2022/07/01 05:45:24;;;;;;;8.13;7.43;;;;;;;21.62;71.47;101117.34;5002797;28;102189;-50
2022/07/01 05:47:50;;;;;;;7.75;7.05;;;;;;;21.65;71.27;101121.41;4995520;28;104027;-49
2022/07/01 05:50:18;;;;;;;9.43;7.68;;;;;;;21.64;71.31;101123.34;4998508;28;102326;-49
2022/07/01 05:52:45;;;;;;;7.03;6.43;;;;;;;21.66;71.13;101123.81;4997701;28;102697;-47
2022/07/01 05:55:12;;;;;;;8.05;7.35;;;;;;;21.67;71.31;101122.66;5001545;28;102704;-47
2022/07/01 05:57:38;;;;;;;7.75;6.97;;;;;;;21.68;71.10;101129.84;5001181;28;103922;-48
2022/07/01 06:00:06;;;;;;;8.30;7.50;;;;;;;21.68;71.16;101129.84;5001237;28;102495;-49
2022/07/01 06:02:33;;;;;;;7.43;6.83;;;;;;;21.68;71.23;101127.06;5000049;28;102166;-50
2022/07/01 06:04:59;;;;;;;7.95;7.22;;;;;;;21.70;71.20;101130.31;4999703;28;102322;-46
2022/07/01 06:07:27;;;;;;;8.55;7.75;;;;;;;21.71;71.19;101134.72;4998920;28;104199;-46
2022/07/01 06:09:55;;;;;;;8.10;7.33;;;;;;;21.73;71.21;101135.19;4999631;28;102034;-47
2022/07/01 06:12:21;;;;;;;7.68;6.97;;;;;;;21.74;71.12;101134.03;4999092;28;102191;-46
2022/07/01 06:14:48;;;;;;;8.00;7.28;;;;;;;21.74;70.99;101128.47;5000692;28;102498;-48
2022/07/01 06:17:15;;;;;;;7.30;6.60;;;;;;;21.75;70.96;101130.13;4999147;28;104186;-46
2022/07/01 06:19:42;;;;;;;8.05;7.35;;;;;;;21.78;71.11;101123.91;4999289;28;102551;-47
2022/07/01 06:22:09;;;;;;;7.57;6.95;;;;;;;21.80;70.95;101134.66;4995502;28;102466;-47
2022/07/01 06:24:38;;;;;;;7.97;7.28;;;;;;;21.81;70.94;101130.72;4999068;28;102619;-47
2022/07/01 06:27:05;;;;;;;7.57;6.90;;;;;;;21.82;70.93;101132.34;4997045;28;103818;-46
2022/07/01 06:29:31;;;;;;;7.18;6.57;;;;;;;21.83;70.78;101122.88;4999416;28;102272;-48
2022/07/01 06:31:59;;;;;;;7.32;6.72;;;;;;;21.82;70.89;101127.63;4996359;28;101952;-48
2022/07/01 06:34:25;;;;;;;7.60;6.85;;;;;;;21.82;70.75;101124.84;4996839;28;102079;-48
2022/07/01 06:36:52;;;;;;;7.70;6.90;;;;;;;21.82;70.86;101129.59;4992124;28;104378;-47
2022/07/01 06:39:19;;;;;;;7.05;6.35;;;;;;;21.86;70.76;101129.72;4995708;28;102133;-46
2022/07/01 06:41:47;;;;;;;9.35;7.13;;;;;;;21.84;70.90;101128.06;4992849;28;102244;-46
2022/07/01 06:44:13;;;;;;;7.80;7.07;;;;;;;21.87;70.82;101136.88;4997396;28;102413;-47
2022/07/01 06:46:40;;;;;;;7.90;6.63;;;;;;;21.89;70.77;101137.34;4993546;28;103762;-46
2022/07/01 06:49:07;;;;;;;7.32;6.60;;;;;;;21.89;70.73;101131.78;4988629;28;102470;-48
2022/07/01 06:51:34;;;;;;;7.63;6.90;;;;;;;21.89;70.73;101142.88;4994130;28;103104;-48
2022/07/01 06:54:00;;;;;;;8.50;7.13;;;;;;;21.90;70.67;101138.97;4998825;28;102536;-48
2022/07/01 06:56:27;;;;;;;7.50;6.78;;;;;;;21.93;70.72;101146.63;4996259;28;104587;-48
2022/07/01 06:58:55;;;;;;;7.28;6.68;;;;;;;21.95;70.67;101133.22;4996191;28;102128;-47
2022/07/01 07:01:23;;;;;;;7.88;7.18;;;;;;;21.97;70.47;101147.56;4995655;28;102197;-50
2022/07/01 07:03:50;;;;;;;7.35;6.63;;;;;;;21.99;70.38;101145.25;4997133;28;102357;-49
2022/07/01 07:06:17;;;;;;;7.30;6.60;;;;;;;22.00;70.40;101150.47;4995466;28;104116;-46
2022/07/01 07:08:43;;;;;;;7.47;6.43;;;;;;;22.01;70.19;101146.53;4996766;28;102391;-47
2022/07/01 07:11:10;;;;;;;7.47;6.78;;;;;;;22.01;70.51;101151.28;4995995;28;102478;-46
2022/07/01 07:13:37;;;;;;;7.03;6.32;;;;;;;22.01;70.59;101154.03;4996162;28;102271;-47
2022/07/01 07:16:06;;;;;;;7.35;6.35;;;;;;;21.99;70.56;101146.06;4996853;28;103821;-47
2022/07/01 07:18:33;;;;;;;7.22;6.63;;;;;;;21.97;70.46;101147.56;4993635;28;102180;-47
2022/07/01 07:21:02;;;;;;;6.93;6.32;;;;;;;21.96;70.65;101143.97;4995947;28;102141;-46
2022/07/01 07:23:29;;;;;;;7.03;6.32;;;;;;;21.97;70.69;101145.59;4996728;28;101953;-48
2022/07/01 07:25:56;;;;;;;7.10;6.40;;;;;;;21.98;70.64;101147.22;4984300;28;103930;-47
2022/07/01 07:28:23;;;;;;;6.88;6.25;;;;;;;21.99;70.49;101145.25;4993734;28;102190;-47
2022/07/01 07:30:49;;;;;;;7.47;6.68;;;;;;;21.97;70.41;101148.38;4993966;28;102379;-47
2022/07/01 07:33:17;;;;;;;6.50;5.90;;;;;;;21.99;70.52;101136.94;4996950;28;102208;-47
2022/07/01 07:35:44;;;;;;;6.80;6.20;;;;;;;21.99;70.49;101145.25;4996356;28;104213;-46
2022/07/01 07:38:11;;;;;;;7.43;6.72;;;;;;;21.98;70.38;101147.22;4991755;28;102239;-46
2022/07/01 07:40:38;;;;;;;7.50;6.80;;;;;;;21.98;70.60;101143.63;4981218;28;102126;-47
2022/07/01 07:43:07;;;;;;;7.68;6.97;;;;;;;21.98;70.45;101143.63;4992838;28;104067;-46
2022/07/01 07:45:33;;;;;;;;;;;;;;;21.97;70.49;101140.06;4994928;28;103951;-46
2022/07/01 07:48:00;;;;;;;8.02;6.80;;;;;;;21.96;70.59;101143.16;4996508;28;102344;-50
2022/07/01 07:50:28;;;;;;;8.02;7.22;;;;;;;21.96;70.40;101141.22;4993752;28;102582;-48
2022/07/01 07:52:55;;;;;;;8.75;7.65;;;;;;;21.97;70.39;101144.78;4993689;28;102750;-47
2022/07/01 07:55:22;;;;;;;8.55;7.70;;;;;;;21.97;70.55;101144.78;4992010;28;103932;-48
2022/07/01 07:57:49;;;;;;;6.90;6.27;;;;;;;22.02;70.46;101142.59;4995102;28;102140;-48
2022/07/01 08:00:16;;;;;;;8.65;6.90;;;;;;;22.05;70.33;101150.25;4993054;28;102551;-47
2022/07/01 08:02:43;;;;;;;9.45;7.30;;;;;;;22.07;70.77;101139.66;4993557;28;102424;-46
2022/07/01 08:05:10;;;;;;;8.30;6.75;;;;;;;22.11;70.12;101148.09;4995206;28;104120;-47
2022/07/01 08:07:40;;;;;;;10.63;8.02;;;;;;;22.12;70.42;101146.94;4994639;28;102167;-47
2022/07/01 08:10:10;;;;;;;7.00;6.40;;;;;;;22.13;70.14;101144.97;4996355;28;102170;-48
2022/07/01 08:12:36;;;;;;;;;;;;;;;22.11;70.35;101148.09;4996459;28;102283;-46
2022/07/01 08:15:04;;;;;;;9.90;6.85;;;;;;;22.12;70.16;101144.16;4994626;28;104124;-47
2022/07/01 08:17:31;;;;;;;7.75;6.95;;;;;;;22.15;70.32;101143.53;4992914;28;102457;-46
2022/07/01 08:19:58;;;;;;;7.10;6.45;;;;;;;22.16;69.87;101142.38;4995814;28;102217;-47
2022/07/01 08:22:24;;;;;;;8.82;6.82;;;;;;;22.18;69.59;101142.00;4996231;28;101994;-46
2022/07/01 08:24:52;;;;;;;7.43;6.72;;;;;;;22.18;69.88;101142.00;4992596;28;104093;-46
2022/07/01 08:27:19;;;;;;;6.80;6.10;;;;;;;22.16;69.87;101145.13;4979400;28;102154;-47
2022/07/01 08:29:45;;;;;;;7.53;6.75;;;;;;;22.15;69.83;101143.53;4995960;28;102201;-47
2022/07/01 08:32:12;;;;;;;8.27;6.38;;;;;;;22.16;70.32;101138.78;4996247;28;102353;-46
2022/07/01 08:34:40;;;;;;;7.63;6.93;;;;;;;22.17;69.46;101141.22;4994946;28;103976;-46
2022/07/01 08:37:07;;;;;;;9.13;7.53;;;;;;;22.18;69.81;101129.00;4995230;28;102312;-47
2022/07/01 08:39:33;;;;;;;8.75;7.13;;;;;;;22.16;69.75;101130.47;4995132;28;102326;-47
2022/07/01 08:42:01;;;;;;;7.28;6.57;;;;;;;22.16;70.05;101133.25;4995815;28;103065;-47
2022/07/01 08:44:28;;;;;;;7.13;6.53;;;;;;;22.16;69.70;101138.78;4995043;28;103926;-47
2022/07/01 08:46:54;;;;;;;7.38;6.68;;;;;;;22.14;70.26;101128.03;4992130;28;102330;-46
2022/07/01 08:49:22;;;;;;;9.15;6.80;;;;;;;22.14;69.90;101136.34;4995238;28;102256;-46
2022/07/01 08:51:48;;;;;;;6.50;6.00;;;;;;;22.16;69.93;101133.25;4986232;28;102455;-47
2022/07/01 08:54:15;;;;;;;6.93;6.22;;;;;;;22.15;69.88;101132.44;4995714;28;104052;-50
2022/07/01 08:56:42;;;;;;;7.05;6.45;;;;;;;22.17;69.90;101129.31;4995451;28;102242;-49
2022/07/01 08:59:12;;;;;;;6.25;5.70;;;;;;;22.11;69.84;101122.31;4995126;28;102214;-50
2022/07/01 09:01:40;;;;;;;10.48;6.65;;;;;;;22.08;70.08;101124.63;4997145;28;102202;-47
2022/07/01 09:04:14;;;;;;;6.32;5.82;;;;;;;22.11;70.10;101128.69;4995055;28;104311;-49
2022/07/01 09:06:41;;;;;;;7.25;6.45;;;;;;;22.10;69.99;101129.81;4994488;28;102351;-48
2022/07/01 09:09:12;;;;;;;7.32;6.63;;;;;;;22.07;69.92;101125.00;4996570;28;102103;-46
2022/07/01 09:11:45;;;;;;;8.32;6.90;;;;;;;22.06;69.92;101123.34;4996588;28;101964;-49
2022/07/01 09:14:15;;;;;;;7.75;7.05;;;;;;;22.09;69.72;101122.66;4995493;28;103960;-50
2022/07/01 09:16:43;;;;;;;7.70;7.00;;;;;;;22.08;69.93;101109.97;4996734;28;102013;-51
2022/07/01 09:19:11;;;;;;;8.10;7.30;;;;;;;22.08;69.98;101121.06;4997155;28;102084;-50
2022/07/01 09:21:37;;;;;;;7.13;6.53;;;;;;;22.08;70.06;101118.28;4995721;28;102200;-51
2022/07/01 09:24:22;;;;;;;7.68;6.88;;;;;;;22.11;70.13;101125.94;4994365;28;103860;-50
2022/07/01 09:26:52;;;;;;;7.57;6.88;;;;;;;22.12;70.11;101116.44;4990720;28;102190;-48
2022/07/01 09:29:20;;;;;;;7.28;6.55;;;;;;;22.12;69.96;101113.69;4995725;28;101828;-50
2022/07/01 09:31:48;;;;;;;7.77;6.17;;;;;;;22.11;70.03;101114.00;4997065;28;102533;-47
2022/07/01 09:34:15;;;;;;;6.80;5.80;;;;;;;22.05;69.74;101105.09;4995139;28;103642;-47
2022/07/01 09:36:52;;;;;;;7.47;6.80;;;;;;;22.04;69.91;101104.28;4974250;28;101908;-47
2022/07/01 09:39:18;;;;;;;7.40;6.80;;;;;;;22.04;69.96;101104.28;4981406;28;102521;-48
2022/07/01 09:41:45;;;;;;;7.28;6.60;;;;;;;22.03;69.93;101101.84;4990741;28;102267;-49
2022/07/01 09:44:12;;;;;;;7.97;7.03;;;;;;;22.02;69.74;101100.22;4975701;28;103755;-49
2022/07/01 09:46:51;;;;;;;7.38;6.68;;;;;;;22.02;69.72;101106.59;4995104;28;102114;-47
2022/07/01 09:49:18;;;;;;;6.95;6.35;;;;;;;22.01;69.73;101099.44;4994650;28;102197;-49
2022/07/01 09:51:44;;;;;;;7.32;6.63;;;;;;;21.99;69.63;101096.16;4996233;28;102157;-47
2022/07/01 09:54:12;;;;;;;8.15;6.93;;;;;;;22.01;69.75;101098.63;4995735;28;104004;-47
2022/07/01 09:56:39;;;;;;;6.78;6.15;;;;;;;22.01;69.82;101093.88;4992431;28;102205;-48
2022/07/01 09:59:05;;;;;;;7.22;6.47;;;;;;;22.02;69.88;101101.03;4992356;28;102413;-50
2022/07/01 10:01:32;;;;;;;7.28;6.65;;;;;;;22.00;69.71;101097.00;4995761;28;102406;-47
2022/07/01 10:04:04;;;;;;;7.25;6.38;;;;;;;22.02;69.96;101094.69;4991675;28;103923;-50
2022/07/01 10:06:45;;;;;;;7.28;6.68;;;;;;;22.02;70.12;101100.22;4995457;28;102573;-49
2022/07/01 10:09:32;;;;;;;6.82;6.20;;;;;;;22.04;69.68;101095.19;4994616;28;102166;-51
2022/07/01 10:12:13;;;;;;;7.28;6.07;;;;;;;22.06;70.19;101098.41;4998875;28;102215;-48
2022/07/01 10:14:42;;;;;;;7.30;6.50;;;;;;;22.04;69.95;101093.22;4995906;28;103568;-47
2022/07/01 10:17:09;;;;;;;7.65;6.55;;;;;;;22.00;69.84;101097.00;4998091;28;102313;-51
2022/07/01 10:19:37;;;;;;;6.90;6.30;;;;;;;21.97;69.69;101092.13;4998181;28;102438;-50
2022/07/01 10:22:27;;;;;;;8.02;7.32;;;;;;;21.97;69.83;101092.94;4996538;28;102154;-49
2022/07/01 10:24:53;;;;;;;7.35;6.75;;;;;;;21.97;69.92;101103.22;4981678;28;103919;-49
2022/07/01 10:27:22;;;;;;;7.80;6.97;;;;;;;21.95;69.97;101097.19;4999106;28;102166;-48
2022/07/01 10:29:49;;;;;;;7.78;6.93;;;;;;;21.94;69.79;101087.28;4998073;28;102791;-46
2022/07/01 10:32:30;;;;;;;7.45;6.78;;;;;;;21.99;69.98;101096.16;4999372;28;102181;-48
2022/07/01 10:35:06;;;;;;;6.50;5.97;;;;;;;22.02;69.93;101083.59;4990685;28;107938;-49
2022/07/01 10:37:33;;;;;;;7.45;6.75;;;;;;;22.01;70.01;101082.00;4997497;28;102217;-48
2022/07/01 10:40:00;;;;;;;7.85;6.60;;;;;;;21.99;69.99;101089.81;4998040;28;102814;-50
2022/07/01 10:42:32;;;;;;;7.10;6.40;;;;;;;21.96;69.95;101079.41;4997315;28;102196;-49
2022/07/01 10:45:07;;;;;;;6.95;6.35;;;;;;;21.95;69.98;101088.88;4997218;28;103745;-49
2022/07/01 10:47:35;;;;;;;7.28;6.57;;;;;;;21.96;69.82;101076.63;4996383;28;102141;-47
2022/07/01 10:50:11;;;;;;;6.93;6.32;;;;;;;21.93;69.90;101074.56;4992278;28;102164;-50
2022/07/01 10:52:39;;;;;;;7.03;6.32;;;;;;;21.92;69.72;101075.69;4996957;28;102139;-49
2022/07/01 10:55:07;;;;;;;7.28;6.60;;;;;;;21.91;69.97;101082.41;4998581;28;104011;-49
2022/07/01 10:57:38;;;;;;;7.18;6.57;;;;;;;21.87;69.93;101068.41;4995680;28;102491;-49
2022/07/01 11:00:31;;;;;;;7.00;6.30;;;;;;;21.85;69.87;101070.69;4998098;28;103893;-50
2022/07/01 11:03:13;;;;;;;8.10;7.40;;;;;;;21.88;69.99;101069.22;4980924;28;102084;-48
2022/07/01 11:05:44;;;;;;;7.65;6.95;;;;;;;21.93;69.97;101069.03;4992496;28;103922;-46
2022/07/01 11:08:11;;;;;;;7.43;6.72;;;;;;;21.95;69.79;101066.72;4997293;28;102410;-46
2022/07/01 11:10:40;;;;;;;7.20;6.60;;;;;;;21.90;69.79;101067.75;4998134;28;102011;-48
2022/07/01 11:13:07;;;;;;;7.65;6.95;;;;;;;21.84;69.68;101067.13;4998252;28;102711;-49
2022/07/01 11:15:34;;;;;;;7.25;6.60;;;;;;;21.83;70.12;101071.06;4997415;28;103951;-47
2022/07/01 11:18:02;;;;;;;7.70;7.10;;;;;;;21.84;69.96;101060.78;4995977;28;102031;-50
2022/07/01 11:20:31;;;;;;;7.40;6.72;;;;;;;21.87;70.03;101060.09;4978753;28;101953;-50
2022/07/01 11:23:00;;;;;;;7.45;6.75;;;;;;;21.86;69.75;101057.69;4993530;28;101973;-47
2022/07/01 11:25:27;;;;;;;8.10;7.38;;;;;;;21.88;69.95;101052.59;4994217;28;103792;-49
2022/07/01 11:27:54;;;;;;;8.10;6.65;;;;;;;21.86;69.75;101049.38;4997780;28;102289;-49
2022/07/01 11:30:21;;;;;;;8.27;7.47;;;;;;;21.84;69.75;101056.03;4998459;28;102035;-47